createdAt,value
2022-08-02T00:03:46.069Z,5.30
2022-08-02T00:08:44.202Z,4.15
2022-08-02T00:13:43.659Z,5.88
2022-08-02T00:18:41.851Z,6.00
2022-08-02T00:24:03.340Z,7.38
2022-08-02T00:28:59.469Z,7.43
2022-08-02T00:34:27.439Z,8.85
2022-08-02T00:39:33.801Z,9.65
2022-08-02T00:44:33.952Z,11.40
2022-08-02T00:49:32.988Z,12.05
2022-08-02T00:54:31.405Z,8.00
2022-08-02T00:59:29.593Z,9.55
2022-08-02T01:04:31.596Z,9.80
2022-08-02T01:09:30.230Z,10.85
2022-08-02T01:14:28.617Z,10.50
2022-08-02T01:19:35.990Z,7.43
2022-08-02T01:24:56.243Z,6.53
2022-08-02T01:30:00.258Z,6.60
2022-08-02T01:35:03.928Z,5.40
2022-08-02T01:40:08.311Z,7.72
2022-08-02T01:45:11.496Z,4.63
2022-08-02T01:50:13.861Z,5.20
2022-08-02T01:55:18.452Z,8.18
2022-08-02T02:00:20.783Z,9.07
2022-08-02T02:05:22.154Z,4.55
2022-08-02T02:10:27.185Z,5.72
2022-08-02T02:15:28.133Z,4.80
2022-08-02T02:20:27.879Z,4.25
2022-08-02T02:25:35.691Z,5.88
2022-08-02T02:30:39.885Z,5.15
2022-08-02T02:35:39.528Z,6.32
2022-08-02T02:40:40.539Z,8.55
2022-08-02T02:45:41.837Z,4.88
2022-08-02T02:50:40.880Z,4.95
2022-08-02T02:55:39.402Z,5.10
2022-08-02T03:00:56.572Z,4.88
2022-08-02T03:05:55.442Z,4.30
2022-08-02T03:10:55.003Z,6.50
2022-08-02T03:15:55.174Z,5.50
2022-08-02T03:20:53.255Z,5.32
2022-08-02T03:25:53.190Z,4.40
2022-08-02T03:30:51.321Z,5.75
2022-08-02T03:35:53.545Z,11.07
2022-08-02T03:40:52.425Z,4.97
2022-08-02T03:45:50.428Z,6.28
2022-08-02T03:50:51.567Z,4.13
2022-08-02T03:55:51.914Z,4.68
2022-08-02T04:00:50.742Z,8.35
2022-08-02T04:06:03.217Z,9.55
2022-08-02T04:11:20.709Z,5.78
2022-08-02T04:16:22.604Z,4.63
2022-08-02T04:21:24.867Z,6.57
2022-08-02T04:26:28.197Z,4.07
2022-08-02T04:31:26.909Z,4.05
2022-08-02T04:36:31.569Z,4.25
2022-08-02T04:41:41.074Z,3.72
2022-08-02T04:46:44.340Z,4.80
2022-08-02T04:51:44.802Z,6.10
2022-08-02T04:56:43.082Z,4.85
2022-08-02T05:01:42.557Z,3.92
2022-08-02T05:06:40.780Z,4.63
2022-08-02T05:11:40.287Z,7.32
2022-08-02T05:16:38.618Z,3.80
2022-08-02T05:21:36.750Z,6.15
2022-08-02T05:26:34.850Z,3.83
2022-08-02T05:31:34.359Z,4.28
2022-08-02T05:36:32.561Z,4.05
2022-08-02T05:41:30.662Z,4.65
2022-08-02T05:46:28.867Z,6.28
2022-08-02T05:51:35.829Z,5.70
2022-08-02T05:56:36.867Z,6.75
2022-08-02T06:01:37.847Z,4.03
2022-08-02T06:06:38.912Z,8.07
2022-08-02T06:11:39.559Z,4.88
2022-08-02T06:16:42.479Z,4.32
2022-08-02T06:22:42.133Z,3.42
2022-08-02T06:27:02.889Z,3.10
2022-08-02T06:32:01.549Z,3.47
2022-08-02T06:37:10.354Z,5.43
2022-08-02T06:42:16.765Z,4.35
2022-08-02T06:47:26.763Z,3.05
2022-08-02T06:52:30.077Z,1.98
2022-08-02T06:57:29.478Z,1.92
2022-08-02T07:02:27.868Z,3.05
2022-08-02T07:07:27.597Z,1.92
2022-08-02T07:12:25.769Z,3.50
2022-08-02T07:17:23.985Z,2.92
2022-08-02T07:22:23.661Z,3.25
2022-08-02T07:27:23.655Z,2.88
2022-08-02T07:32:23.992Z,1.88
2022-08-02T07:37:35.183Z,2.15
2022-08-02T07:42:44.545Z,8.00
2022-08-02T07:47:44.615Z,2.63
2022-08-02T07:52:43.401Z,2.42
2022-08-02T07:57:46.466Z,2.28
2022-08-02T08:02:45.515Z,3.22
2022-08-02T08:07:43.683Z,2.10
2022-08-02T08:12:43.158Z,2.58
2022-08-02T08:17:41.273Z,3.22
2022-08-02T08:22:39.432Z,3.05
2022-08-02T08:27:37.574Z,4.32
2022-08-02T08:32:37.031Z,2.33
2022-08-02T08:37:35.838Z,1.30
2022-08-02T08:42:34.978Z,2.20
2022-08-02T08:47:38.440Z,1.73
2022-08-02T08:52:41.146Z,1.20
2022-08-02T08:57:42.190Z,6.65
2022-08-02T09:02:43.561Z,3.67
2022-08-02T09:07:44.776Z,3.30
2022-08-02T09:12:42.991Z,2.95
2022-08-02T09:17:53.370Z,1.65
2022-08-02T09:23:07.093Z,1.38
2022-08-02T09:28:06.484Z,3.83
2022-08-02T09:33:06.189Z,13.55
2022-08-02T09:38:12.094Z,1.42
2022-08-02T09:43:10.588Z,1.90
2022-08-02T09:48:11.058Z,2.00
2022-08-02T09:53:14.135Z,3.00
2022-08-02T09:58:19.359Z,1.88
2022-08-02T10:03:22.214Z,3.22
2022-08-02T10:08:21.711Z,1.55
2022-08-02T10:13:21.911Z,1.80
2022-08-02T10:18:37.715Z,2.33
2022-08-02T10:23:40.858Z,2.65
2022-08-02T10:28:39.198Z,2.83
2022-08-02T10:33:40.345Z,1.38
2022-08-02T10:38:39.070Z,2.45
2022-08-02T10:43:50.348Z,1.20
2022-08-02T10:54:30.459Z,1.92
2022-08-02T10:59:30.469Z,3.63
2022-08-02T11:04:31.785Z,3.05
2022-08-02T11:09:33.344Z,2.97
2022-08-02T11:14:33.674Z,2.00
2022-08-02T11:19:34.140Z,1.20
2022-08-02T11:24:34.949Z,2.78
2022-08-02T11:29:38.980Z,1.77
2022-08-02T11:34:40.649Z,2.00
2022-08-02T11:39:38.913Z,1.02
2022-08-02T11:44:46.923Z,3.25
2022-08-02T11:49:47.169Z,2.17
2022-08-02T11:54:45.582Z,3.80
2022-08-02T11:59:45.465Z,2.92
2022-08-02T12:04:44.177Z,4.88
2022-08-02T12:09:43.842Z,1.25
2022-08-02T12:14:44.770Z,5.50
2022-08-02T12:19:44.045Z,2.17
2022-08-02T12:24:46.034Z,1.30
2022-08-02T12:29:58.395Z,3.85
2022-08-02T12:35:09.569Z,2.27
2022-08-02T12:40:26.541Z,1.92
2022-08-02T12:45:25.259Z,2.13
2022-08-02T12:50:29.494Z,1.40
2022-08-02T12:56:00.862Z,2.75
2022-08-02T13:00:54.532Z,1.25
2022-08-02T13:05:57.278Z,1.25
2022-08-02T13:10:58.834Z,2.33
2022-08-02T13:15:57.100Z,5.00
2022-08-02T13:20:57.318Z,4.60
2022-08-02T13:25:58.862Z,3.97
2022-08-02T13:31:05.944Z,2.67
2022-08-02T13:36:13.221Z,4.70
2022-08-02T13:41:13.885Z,3.83
2022-08-02T13:46:12.248Z,5.50
2022-08-02T13:51:12.175Z,5.22
2022-08-02T13:56:14.580Z,1.70
2022-08-02T14:01:12.818Z,3.42
2022-08-02T14:06:11.125Z,6.88
2022-08-02T14:11:09.361Z,2.28
2022-08-02T14:16:09.001Z,3.15
2022-08-02T14:21:07.185Z,1.30
2022-08-02T14:26:14.171Z,3.50
2022-08-02T14:31:26.913Z,6.63
2022-08-02T14:36:27.389Z,3.97
2022-08-02T14:41:26.321Z,2.45
2022-08-02T14:46:26.123Z,9.10
2022-08-02T14:51:24.381Z,4.20
2022-08-02T14:56:23.115Z,1.88
2022-08-02T15:01:21.451Z,2.97
2022-08-02T15:06:28.319Z,3.55
2022-08-02T15:11:26.808Z,2.03
2022-08-02T15:16:41.697Z,1.30
2022-08-02T15:21:54.696Z,2.92
2022-08-02T15:26:55.590Z,3.28
2022-08-02T15:31:53.776Z,3.05
2022-08-02T15:36:53.377Z,1.92
2022-08-02T15:41:51.657Z,3.70
2022-08-02T15:46:51.766Z,3.33
2022-08-02T15:51:50.323Z,4.22
2022-08-02T15:56:50.190Z,2.03
2022-08-02T16:01:48.664Z,1.23
2022-08-02T16:06:46.955Z,3.38
2022-08-02T16:11:45.195Z,1.95
2022-08-02T16:16:44.950Z,3.63
2022-08-02T16:21:43.186Z,2.25
2022-08-02T16:26:41.591Z,1.13
2022-08-02T16:31:42.831Z,3.30
2022-08-02T16:36:42.711Z,2.58
2022-08-02T16:41:50.489Z,2.80
2022-08-02T16:46:50.867Z,4.15
2022-08-02T16:51:52.550Z,6.72
2022-08-02T16:56:51.337Z,1.38
2022-08-02T17:02:03.842Z,2.40
2022-08-02T17:08:05.872Z,3.35
2022-08-02T17:12:27.511Z,2.78
2022-08-02T17:17:34.215Z,2.42
2022-08-02T17:22:36.857Z,2.28
2022-08-02T17:27:35.243Z,2.53
2022-08-02T17:32:33.474Z,2.28
2022-08-02T17:37:33.343Z,6.18
2022-08-02T17:42:33.335Z,8.82
2022-08-02T17:47:31.632Z,5.47
2022-08-02T17:52:52.199Z,4.57
2022-08-02T17:57:57.870Z,9.48
2022-08-02T18:02:57.280Z,13.88
2022-08-02T18:08:00.913Z,4.85
2022-08-02T18:12:59.314Z,7.00
2022-08-02T18:17:58.020Z,8.32
2022-08-02T18:22:58.862Z,9.02
2022-08-02T18:27:57.275Z,10.32
2022-08-02T18:33:59.935Z,8.85
2022-08-02T18:38:16.095Z,8.90
2022-08-02T18:43:14.456Z,9.40
2022-08-02T18:48:12.712Z,15.13
2022-08-02T18:53:39.322Z,36.75
2022-08-02T18:58:35.794Z,39.85
2022-08-02T19:03:37.014Z,47.08
2022-08-02T19:08:36.875Z,40.63
2022-08-02T19:13:39.340Z,43.13
2022-08-02T19:18:40.470Z,42.47
2022-08-02T19:23:54.540Z,34.75
2022-08-02T19:28:54.259Z,23.77
2022-08-02T19:34:05.914Z,24.13
2022-08-02T19:39:07.542Z,21.23
2022-08-02T19:44:24.291Z,17.98
2022-08-02T19:49:40.355Z,12.13
2022-08-02T19:54:55.468Z,12.27
2022-08-02T19:59:55.470Z,16.13
2022-08-02T20:04:53.905Z,12.00
2022-08-02T20:09:55.801Z,11.95
2022-08-02T20:14:54.666Z,5.97
2022-08-02T20:19:53.397Z,6.28
2022-08-02T20:24:51.606Z,11.50
2022-08-02T20:29:51.420Z,5.63
2022-08-02T20:34:50.286Z,4.75
2022-08-02T20:39:49.144Z,2.90
2022-08-02T20:44:47.290Z,3.10
2022-08-02T20:50:01.159Z,5.30
2022-08-02T20:55:00.815Z,5.68
2022-08-02T21:00:02.930Z,2.95
2022-08-02T21:05:07.896Z,5.38
2022-08-02T21:10:13.566Z,4.57
2022-08-02T21:15:13.429Z,3.00
2022-08-02T21:20:16.769Z,4.70
2022-08-02T21:25:15.744Z,5.95
2022-08-02T21:30:14.593Z,7.95
2022-08-02T21:35:14.311Z,7.60
2022-08-02T21:40:13.467Z,4.03
2022-08-02T21:45:17.337Z,5.78
2022-08-02T21:50:33.144Z,6.85
2022-08-02T21:56:00.540Z,3.65
2022-08-02T22:00:49.309Z,4.95
2022-08-02T22:05:48.859Z,5.70
2022-08-02T22:16:21.034Z,5.10
2022-08-02T22:21:22.949Z,5.88
2022-08-02T22:26:22.751Z,4.10
2022-08-02T22:31:39.604Z,4.50
2022-08-02T22:36:43.382Z,4.75
2022-08-02T22:42:01.581Z,7.03
2022-08-02T22:46:59.694Z,7.43
2022-08-02T22:52:07.100Z,3.63
2022-08-02T22:57:06.439Z,4.68
2022-08-02T23:02:05.727Z,7.57
2022-08-02T23:07:04.036Z,5.35
2022-08-02T23:12:04.280Z,8.52
2022-08-02T23:17:20.026Z,4.55
2022-08-02T23:22:18.375Z,4.40
2022-08-02T23:27:20.089Z,3.97
2022-08-02T23:32:18.661Z,4.00
2022-08-02T23:37:21.134Z,4.47
2022-08-02T23:42:20.615Z,5.13
2022-08-02T23:47:19.067Z,7.20
2022-08-02T23:52:17.547Z,3.38
2022-08-02T23:57:20.778Z,4.78
